sensor_id;sensor_type;location;lat;lon;timestamp;P1;durP1;ratioP1;P2;durP2;ratioP2
21492;SDS011;10908;50.690;4.400;2023-02-15T00:01:36;62.83;;;32.13;;
21492;SDS011;10908;50.690;4.400;2023-02-15T00:04:03;66.47;;;31.67;;
21492;SDS011;10908;50.690;4.400;2023-02-15T00:06:30;58.95;;;30.75;;
21492;SDS011;10908;50.690;4.400;2023-02-15T00:08:55;66.68;;;32.38;;
21492;SDS011;10908;50.690;4.400;2023-02-15T00:11:21;59.72;;;30.67;;
21492;SDS011;10908;50.690;4.400;2023-02-15T00:14:09;62.20;;;30.55;;
21492;SDS011;10908;50.690;4.400;2023-02-15T00:16:40;62.88;;;30.80;;
21492;SDS011;10908;50.690;4.400;2023-02-15T00:19:07;58.17;;;30.40;;
21492;SDS011;10908;50.690;4.400;2023-02-15T00:21:33;61.38;;;31.58;;
21492;SDS011;10908;50.690;4.400;2023-02-15T00:24:00;63.13;;;31.95;;
21492;SDS011;10908;50.690;4.400;2023-02-15T00:26:27;66.78;;;31.23;;
21492;SDS011;10908;50.690;4.400;2023-02-15T00:28:54;61.00;;;30.17;;
21492;SDS011;10908;50.690;4.400;2023-02-15T00:31:20;67.45;;;34.22;;
21492;SDS011;10908;50.690;4.400;2023-02-15T00:33:46;69.50;;;33.08;;
21492;SDS011;10908;50.690;4.400;2023-02-15T00:36:12;67.18;;;33.28;;
21492;SDS011;10908;50.690;4.400;2023-02-15T00:38:38;61.95;;;30.90;;
21492;SDS011;10908;50.690;4.400;2023-02-15T00:41:05;62.38;;;31.95;;
21492;SDS011;10908;50.690;4.400;2023-02-15T00:43:32;60.90;;;30.80;;
21492;SDS011;10908;50.690;4.400;2023-02-15T00:45:59;61.83;;;30.73;;
21492;SDS011;10908;50.690;4.400;2023-02-15T00:48:25;60.83;;;31.33;;
21492;SDS011;10908;50.690;4.400;2023-02-15T00:50:52;60.40;;;31.08;;
21492;SDS011;10908;50.690;4.400;2023-02-15T00:53:19;65.68;;;31.13;;
21492;SDS011;10908;50.690;4.400;2023-02-15T00:55:45;58.35;;;30.92;;
21492;SDS011;10908;50.690;4.400;2023-02-15T00:58:11;62.63;;;30.25;;
21492;SDS011;10908;50.690;4.400;2023-02-15T01:00:37;62.25;;;31.23;;
21492;SDS011;10908;50.690;4.400;2023-02-15T01:03:04;67.60;;;32.05;;
21492;SDS011;10908;50.690;4.400;2023-02-15T01:05:30;61.08;;;30.63;;
21492;SDS011;10908;50.690;4.400;2023-02-15T01:07:57;59.22;;;30.55;;
21492;SDS011;10908;50.690;4.400;2023-02-15T01:10:24;69.50;;;32.20;;
21492;SDS011;10908;50.690;4.400;2023-02-15T01:12:50;62.42;;;31.80;;
21492;SDS011;10908;50.690;4.400;2023-02-15T01:15:17;63.00;;;32.10;;
21492;SDS011;10908;50.690;4.400;2023-02-15T01:17:42;60.38;;;31.05;;
21492;SDS011;10908;50.690;4.400;2023-02-15T01:20:10;67.72;;;33.63;;
21492;SDS011;10908;50.690;4.400;2023-02-15T01:22:36;62.05;;;31.55;;
21492;SDS011;10908;50.690;4.400;2023-02-15T01:25:02;64.45;;;30.70;;
21492;SDS011;10908;50.690;4.400;2023-02-15T01:27:28;59.65;;;30.35;;
21492;SDS011;10908;50.690;4.400;2023-02-15T01:29:55;63.92;;;30.00;;
21492;SDS011;10908;50.690;4.400;2023-02-15T01:32:21;62.00;;;30.88;;
21492;SDS011;10908;50.690;4.400;2023-02-15T01:34:47;58.92;;;29.77;;
21492;SDS011;10908;50.690;4.400;2023-02-15T01:37:13;63.83;;;30.70;;
21492;SDS011;10908;50.690;4.400;2023-02-15T01:39:38;61.72;;;29.65;;
21492;SDS011;10908;50.690;4.400;2023-02-15T01:42:04;59.42;;;29.75;;
21492;SDS011;10908;50.690;4.400;2023-02-15T01:47:22;59.55;;;30.55;;
21492;SDS011;10908;50.690;4.400;2023-02-15T01:50:00;59.95;;;30.27;;
21492;SDS011;10908;50.690;4.400;2023-02-15T01:53:07;59.88;;;30.17;;
21492;SDS011;10908;50.690;4.400;2023-02-15T01:58:42;65.60;;;31.98;;
21492;SDS011;10908;50.690;4.400;2023-02-15T02:01:09;61.42;;;31.30;;
21492;SDS011;10908;50.690;4.400;2023-02-15T02:06:38;60.78;;;29.25;;
21492;SDS011;10908;50.690;4.400;2023-02-15T02:09:04;60.45;;;30.83;;
21492;SDS011;10908;50.690;4.400;2023-02-15T02:11:31;66.18;;;31.10;;
21492;SDS011;10908;50.690;4.400;2023-02-15T02:13:58;62.65;;;31.30;;
21492;SDS011;10908;50.690;4.400;2023-02-15T02:27:12;65.57;;;31.38;;
21492;SDS011;10908;50.690;4.400;2023-02-15T02:32:52;69.70;;;33.45;;
21492;SDS011;10908;50.690;4.400;2023-02-15T02:35:33;62.70;;;31.60;;
21492;SDS011;10908;50.690;4.400;2023-02-15T02:38:19;66.72;;;31.55;;
21492;SDS011;10908;50.690;4.400;2023-02-15T02:46:52;69.35;;;33.70;;
21492;SDS011;10908;50.690;4.400;2023-02-15T02:49:29;70.75;;;34.92;;
21492;SDS011;10908;50.690;4.400;2023-02-15T02:52:01;67.35;;;33.53;;
21492;SDS011;10908;50.690;4.400;2023-02-15T02:54:29;71.22;;;34.95;;
21492;SDS011;10908;50.690;4.400;2023-02-15T02:56:56;66.85;;;35.22;;
21492;SDS011;10908;50.690;4.400;2023-02-15T02:59:27;67.90;;;33.75;;
21492;SDS011;10908;50.690;4.400;2023-02-15T03:02:03;69.78;;;33.55;;
21492;SDS011;10908;50.690;4.400;2023-02-15T03:04:37;68.90;;;33.00;;
21492;SDS011;10908;50.690;4.400;2023-02-15T03:07:17;67.53;;;32.80;;
21492;SDS011;10908;50.690;4.400;2023-02-15T03:09:51;73.93;;;34.22;;
21492;SDS011;10908;50.690;4.400;2023-02-15T03:12:19;64.43;;;33.95;;
21492;SDS011;10908;50.690;4.400;2023-02-15T03:14:51;70.55;;;34.55;;
21492;SDS011;10908;50.690;4.400;2023-02-15T03:17:21;62.67;;;32.75;;
21492;SDS011;10908;50.690;4.400;2023-02-15T03:19:49;69.95;;;34.38;;
21492;SDS011;10908;50.690;4.400;2023-02-15T03:22:28;73.68;;;33.88;;
21492;SDS011;10908;50.690;4.400;2023-02-15T03:27:34;73.57;;;35.25;;
21492;SDS011;10908;50.690;4.400;2023-02-15T03:30:04;70.57;;;33.25;;
21492;SDS011;10908;50.690;4.400;2023-02-15T03:32:32;64.97;;;32.85;;
21492;SDS011;10908;50.690;4.400;2023-02-15T03:34:59;69.38;;;33.20;;
21492;SDS011;10908;50.690;4.400;2023-02-15T03:37:36;65.88;;;32.78;;
21492;SDS011;10908;50.690;4.400;2023-02-15T03:40:16;67.63;;;34.03;;
21492;SDS011;10908;50.690;4.400;2023-02-15T03:43:04;72.50;;;35.05;;
21492;SDS011;10908;50.690;4.400;2023-02-15T03:45:54;68.63;;;33.85;;
21492;SDS011;10908;50.690;4.400;2023-02-15T03:51:21;72.00;;;34.17;;
21492;SDS011;10908;50.690;4.400;2023-02-15T03:54:00;69.25;;;34.08;;
21492;SDS011;10908;50.690;4.400;2023-02-15T03:56:28;72.68;;;35.58;;
21492;SDS011;10908;50.690;4.400;2023-02-15T03:58:53;79.53;;;36.83;;
21492;SDS011;10908;50.690;4.400;2023-02-15T04:01:46;73.78;;;34.55;;
21492;SDS011;10908;50.690;4.400;2023-02-15T04:04:38;77.53;;;37.20;;
21492;SDS011;10908;50.690;4.400;2023-02-15T04:07:08;70.80;;;35.72;;
21492;SDS011;10908;50.690;4.400;2023-02-15T04:09:34;72.57;;;35.80;;
21492;SDS011;10908;50.690;4.400;2023-02-15T04:12:19;73.65;;;35.15;;
21492;SDS011;10908;50.690;4.400;2023-02-15T04:14:44;75.15;;;34.10;;
21492;SDS011;10908;50.690;4.400;2023-02-15T04:17:28;67.45;;;33.10;;
21492;SDS011;10908;50.690;4.400;2023-02-15T04:19:54;69.97;;;34.53;;
21492;SDS011;10908;50.690;4.400;2023-02-15T04:22:39;69.05;;;34.53;;
21492;SDS011;10908;50.690;4.400;2023-02-15T04:25:23;70.18;;;34.20;;
21492;SDS011;10908;50.690;4.400;2023-02-15T04:27:50;70.90;;;35.20;;
21492;SDS011;10908;50.690;4.400;2023-02-15T04:30:17;72.82;;;35.63;;
21492;SDS011;10908;50.690;4.400;2023-02-15T04:32:45;71.90;;;35.40;;
21492;SDS011;10908;50.690;4.400;2023-02-15T04:35:11;71.88;;;35.22;;
21492;SDS011;10908;50.690;4.400;2023-02-15T04:37:38;70.47;;;34.67;;
21492;SDS011;10908;50.690;4.400;2023-02-15T04:40:04;75.10;;;36.63;;
21492;SDS011;10908;50.690;4.400;2023-02-15T04:42:30;69.90;;;35.13;;
21492;SDS011;10908;50.690;4.400;2023-02-15T04:44:56;69.32;;;35.88;;
21492;SDS011;10908;50.690;4.400;2023-02-15T04:47:22;80.82;;;36.88;;
21492;SDS011;10908;50.690;4.400;2023-02-15T04:49:47;78.75;;;36.40;;
21492;SDS011;10908;50.690;4.400;2023-02-15T04:52:13;70.80;;;36.05;;
21492;SDS011;10908;50.690;4.400;2023-02-15T04:54:39;70.32;;;35.38;;
21492;SDS011;10908;50.690;4.400;2023-02-15T04:57:05;74.35;;;36.88;;
21492;SDS011;10908;50.690;4.400;2023-02-15T04:59:31;72.57;;;35.92;;
21492;SDS011;10908;50.690;4.400;2023-02-15T05:01:57;77.07;;;35.78;;
21492;SDS011;10908;50.690;4.400;2023-02-15T05:04:22;73.55;;;36.05;;
21492;SDS011;10908;50.690;4.400;2023-02-15T05:06:48;70.25;;;34.25;;
21492;SDS011;10908;50.690;4.400;2023-02-15T05:09:14;71.28;;;35.20;;
21492;SDS011;10908;50.690;4.400;2023-02-15T05:11:40;67.30;;;33.65;;
21492;SDS011;10908;50.690;4.400;2023-02-15T05:14:05;65.10;;;31.83;;
21492;SDS011;10908;50.690;4.400;2023-02-15T05:16:31;62.30;;;32.17;;
21492;SDS011;10908;50.690;4.400;2023-02-15T05:18:57;68.35;;;32.80;;
21492;SDS011;10908;50.690;4.400;2023-02-15T05:21:22;65.38;;;32.10;;
21492;SDS011;10908;50.690;4.400;2023-02-15T05:23:48;62.50;;;32.28;;
21492;SDS011;10908;50.690;4.400;2023-02-15T05:26:16;63.03;;;31.15;;
21492;SDS011;10908;50.690;4.400;2023-02-15T05:29:02;68.45;;;31.80;;
21492;SDS011;10908;50.690;4.400;2023-02-15T05:31:28;64.88;;;31.55;;
21492;SDS011;10908;50.690;4.400;2023-02-15T05:33:55;66.65;;;33.17;;
21492;SDS011;10908;50.690;4.400;2023-02-15T05:36:21;64.50;;;32.05;;
21492;SDS011;10908;50.690;4.400;2023-02-15T05:38:47;68.55;;;31.95;;
21492;SDS011;10908;50.690;4.400;2023-02-15T05:41:12;69.28;;;34.45;;
21492;SDS011;10908;50.690;4.400;2023-02-15T05:43:38;70.40;;;32.70;;
21492;SDS011;10908;50.690;4.400;2023-02-15T05:46:04;70.40;;;32.95;;
21492;SDS011;10908;50.690;4.400;2023-02-15T05:48:30;65.53;;;30.02;;
21492;SDS011;10908;50.690;4.400;2023-02-15T05:51:00;65.25;;;30.75;;
21492;SDS011;10908;50.690;4.400;2023-02-15T05:53:33;65.78;;;31.48;;
21492;SDS011;10908;50.690;4.400;2023-02-15T05:56:00;59.70;;;29.67;;
21492;SDS011;10908;50.690;4.400;2023-02-15T05:58:31;57.60;;;28.90;;
21492;SDS011;10908;50.690;4.400;2023-02-15T06:00:59;56.70;;;28.20;;
21492;SDS011;10908;50.690;4.400;2023-02-15T06:03:24;60.65;;;29.75;;
21492;SDS011;10908;50.690;4.400;2023-02-15T06:05:51;62.45;;;29.85;;
21492;SDS011;10908;50.690;4.400;2023-02-15T06:08:17;61.15;;;29.23;;
21492;SDS011;10908;50.690;4.400;2023-02-15T06:10:43;61.92;;;30.42;;
21492;SDS011;10908;50.690;4.400;2023-02-15T06:13:10;58.53;;;29.30;;
21492;SDS011;10908;50.690;4.400;2023-02-15T06:15:35;64.03;;;31.02;;
21492;SDS011;10908;50.690;4.400;2023-02-15T06:18:01;62.42;;;29.08;;
21492;SDS011;10908;50.690;4.400;2023-02-15T06:20:27;63.60;;;29.33;;
21492;SDS011;10908;50.690;4.400;2023-02-15T06:22:52;55.50;;;28.17;;
21492;SDS011;10908;50.690;4.400;2023-02-15T06:25:18;63.50;;;28.58;;
21492;SDS011;10908;50.690;4.400;2023-02-15T06:27:44;55.05;;;28.23;;
21492;SDS011;10908;50.690;4.400;2023-02-15T06:30:10;56.80;;;27.60;;
21492;SDS011;10908;50.690;4.400;2023-02-15T06:32:36;55.88;;;27.80;;
21492;SDS011;10908;50.690;4.400;2023-02-15T06:35:01;62.58;;;28.77;;
21492;SDS011;10908;50.690;4.400;2023-02-15T06:37:27;53.88;;;26.45;;
21492;SDS011;10908;50.690;4.400;2023-02-15T06:39:53;53.78;;;27.25;;
21492;SDS011;10908;50.690;4.400;2023-02-15T06:42:19;53.83;;;25.85;;
21492;SDS011;10908;50.690;4.400;2023-02-15T06:44:46;55.30;;;26.92;;
21492;SDS011;10908;50.690;4.400;2023-02-15T06:47:11;59.50;;;27.63;;
21492;SDS011;10908;50.690;4.400;2023-02-15T06:49:37;60.83;;;29.10;;
21492;SDS011;10908;50.690;4.400;2023-02-15T06:52:03;57.35;;;27.85;;
21492;SDS011;10908;50.690;4.400;2023-02-15T06:54:29;64.10;;;29.70;;
21492;SDS011;10908;50.690;4.400;2023-02-15T06:56:54;61.25;;;29.17;;
21492;SDS011;10908;50.690;4.400;2023-02-15T06:59:20;68.72;;;30.48;;
21492;SDS011;10908;50.690;4.400;2023-02-15T07:01:46;66.75;;;30.38;;
21492;SDS011;10908;50.690;4.400;2023-02-15T07:04:11;59.97;;;28.60;;
21492;SDS011;10908;50.690;4.400;2023-02-15T07:06:37;61.15;;;28.92;;
21492;SDS011;10908;50.690;4.400;2023-02-15T07:09:03;56.95;;;27.95;;
21492;SDS011;10908;50.690;4.400;2023-02-15T07:11:29;62.30;;;29.30;;
21492;SDS011;10908;50.690;4.400;2023-02-15T07:14:13;57.50;;;27.45;;
21492;SDS011;10908;50.690;4.400;2023-02-15T07:16:39;66.57;;;30.85;;
21492;SDS011;10908;50.690;4.400;2023-02-15T07:19:05;67.07;;;29.30;;
21492;SDS011;10908;50.690;4.400;2023-02-15T07:21:32;65.93;;;29.20;;
21492;SDS011;10908;50.690;4.400;2023-02-15T07:23:58;67.80;;;31.08;;
21492;SDS011;10908;50.690;4.400;2023-02-15T07:26:24;62.50;;;28.88;;
21492;SDS011;10908;50.690;4.400;2023-02-15T07:28:50;62.60;;;29.08;;
21492;SDS011;10908;50.690;4.400;2023-02-15T07:31:15;64.45;;;30.02;;
21492;SDS011;10908;50.690;4.400;2023-02-15T07:33:41;62.38;;;29.00;;
21492;SDS011;10908;50.690;4.400;2023-02-15T07:36:06;60.72;;;28.80;;
21492;SDS011;10908;50.690;4.400;2023-02-15T07:38:38;59.95;;;28.70;;
21492;SDS011;10908;50.690;4.400;2023-02-15T07:41:06;66.25;;;29.80;;
21492;SDS011;10908;50.690;4.400;2023-02-15T07:43:34;65.22;;;29.55;;
21492;SDS011;10908;50.690;4.400;2023-02-15T07:46:11;61.35;;;28.52;;
21492;SDS011;10908;50.690;4.400;2023-02-15T07:48:38;62.88;;;28.88;;
21492;SDS011;10908;50.690;4.400;2023-02-15T07:51:05;64.28;;;28.83;;
21492;SDS011;10908;50.690;4.400;2023-02-15T07:53:32;60.92;;;27.98;;
21492;SDS011;10908;50.690;4.400;2023-02-15T07:55:59;58.10;;;27.35;;
21492;SDS011;10908;50.690;4.400;2023-02-15T07:58:25;61.60;;;28.58;;
21492;SDS011;10908;50.690;4.400;2023-02-15T08:01:11;63.25;;;29.27;;
21492;SDS011;10908;50.690;4.400;2023-02-15T08:03:36;61.97;;;28.13;;
21492;SDS011;10908;50.690;4.400;2023-02-15T08:06:02;56.90;;;27.08;;
21492;SDS011;10908;50.690;4.400;2023-02-15T08:08:28;60.90;;;27.27;;
21492;SDS011;10908;50.690;4.400;2023-02-15T08:11:07;51.83;;;25.75;;
21492;SDS011;10908;50.690;4.400;2023-02-15T08:18:56;53.50;;;24.70;;
21492;SDS011;10908;50.690;4.400;2023-02-15T08:21:25;56.65;;;25.65;;
21492;SDS011;10908;50.690;4.400;2023-02-15T08:23:53;50.85;;;24.80;;
21492;SDS011;10908;50.690;4.400;2023-02-15T08:26:19;53.97;;;25.63;;
21492;SDS011;10908;50.690;4.400;2023-02-15T08:28:45;47.90;;;23.27;;
21492;SDS011;10908;50.690;4.400;2023-02-15T08:31:11;60.38;;;24.35;;
21492;SDS011;10908;50.690;4.400;2023-02-15T08:33:38;56.80;;;25.20;;
21492;SDS011;10908;50.690;4.400;2023-02-15T08:36:06;47.78;;;23.45;;
21492;SDS011;10908;50.690;4.400;2023-02-15T08:38:33;47.88;;;23.95;;
21492;SDS011;10908;50.690;4.400;2023-02-15T08:41:10;51.80;;;23.70;;
21492;SDS011;10908;50.690;4.400;2023-02-15T08:43:36;49.60;;;22.85;;
21492;SDS011;10908;50.690;4.400;2023-02-15T08:46:01;46.20;;;20.92;;
21492;SDS011;10908;50.690;4.400;2023-02-15T08:48:27;45.33;;;21.20;;
21492;SDS011;10908;50.690;4.400;2023-02-15T08:50:52;45.03;;;21.27;;
21492;SDS011;10908;50.690;4.400;2023-02-15T08:53:18;42.47;;;20.65;;
21492;SDS011;10908;50.690;4.400;2023-02-15T08:55:46;42.50;;;20.27;;
21492;SDS011;10908;50.690;4.400;2023-02-15T08:58:12;43.05;;;21.08;;
21492;SDS011;10908;50.690;4.400;2023-02-15T09:00:38;45.25;;;21.02;;
21492;SDS011;10908;50.690;4.400;2023-02-15T09:03:03;48.92;;;21.13;;
21492;SDS011;10908;50.690;4.400;2023-02-15T09:05:29;46.40;;;19.85;;
21492;SDS011;10908;50.690;4.400;2023-02-15T09:07:54;41.65;;;19.33;;
21492;SDS011;10908;50.690;4.400;2023-02-15T09:10:20;49.17;;;19.88;;
21492;SDS011;10908;50.690;4.400;2023-02-15T09:12:46;44.88;;;20.60;;
21492;SDS011;10908;50.690;4.400;2023-02-15T09:15:11;43.45;;;19.70;;
21492;SDS011;10908;50.690;4.400;2023-02-15T09:17:37;45.92;;;19.92;;
21492;SDS011;10908;50.690;4.400;2023-02-15T09:20:02;43.15;;;20.67;;
21492;SDS011;10908;50.690;4.400;2023-02-15T09:22:28;39.53;;;18.77;;
21492;SDS011;10908;50.690;4.400;2023-02-15T09:24:56;44.35;;;20.33;;
21492;SDS011;10908;50.690;4.400;2023-02-15T09:27:21;39.33;;;19.45;;
21492;SDS011;10908;50.690;4.400;2023-02-15T09:29:47;41.65;;;19.25;;
21492;SDS011;10908;50.690;4.400;2023-02-15T09:32:15;38.90;;;18.98;;
21492;SDS011;10908;50.690;4.400;2023-02-15T09:34:42;47.13;;;20.05;;
21492;SDS011;10908;50.690;4.400;2023-02-15T09:37:08;42.42;;;19.50;;
21492;SDS011;10908;50.690;4.400;2023-02-15T09:39:33;42.58;;;19.80;;
21492;SDS011;10908;50.690;4.400;2023-02-15T09:42:09;39.88;;;19.52;;
21492;SDS011;10908;50.690;4.400;2023-02-15T09:55:59;39.92;;;19.80;;
21492;SDS011;10908;50.690;4.400;2023-02-15T10:01:17;44.47;;;20.73;;
21492;SDS011;10908;50.690;4.400;2023-02-15T10:04:04;44.75;;;20.67;;
21492;SDS011;10908;50.690;4.400;2023-02-15T10:09:50;38.92;;;20.80;;
21492;SDS011;10908;50.690;4.400;2023-02-15T10:12:22;44.78;;;21.60;;
21492;SDS011;10908;50.690;4.400;2023-02-15T10:15:44;40.42;;;20.27;;
21492;SDS011;10908;50.690;4.400;2023-02-15T10:26:28;41.97;;;19.77;;
21492;SDS011;10908;50.690;4.400;2023-02-15T10:29:09;33.22;;;17.65;;
21492;SDS011;10908;50.690;4.400;2023-02-15T10:31:48;37.45;;;19.30;;
21492;SDS011;10908;50.690;4.400;2023-02-15T10:34:17;37.75;;;18.58;;
21492;SDS011;10908;50.690;4.400;2023-02-15T10:40:03;34.75;;;18.38;;
21492;SDS011;10908;50.690;4.400;2023-02-15T11:00:45;39.47;;;18.90;;
21492;SDS011;10908;50.690;4.400;2023-02-15T11:06:21;36.78;;;17.77;;
21492;SDS011;10908;50.690;4.400;2023-02-15T11:09:00;39.00;;;18.67;;
21492;SDS011;10908;50.690;4.400;2023-02-15T11:11:33;37.38;;;18.90;;
21492;SDS011;10908;50.690;4.400;2023-02-15T11:14:13;37.83;;;18.67;;
21492;SDS011;10908;50.690;4.400;2023-02-15T11:16:49;42.25;;;19.20;;
21492;SDS011;10908;50.690;4.400;2023-02-15T11:19:19;41.30;;;18.90;;
21492;SDS011;10908;50.690;4.400;2023-02-15T11:22:09;37.58;;;19.25;;
21492;SDS011;10908;50.690;4.400;2023-02-15T11:24:44;39.33;;;19.02;;
21492;SDS011;10908;50.690;4.400;2023-02-15T11:33:02;36.65;;;19.65;;
21492;SDS011;10908;50.690;4.400;2023-02-15T11:35:32;44.47;;;20.75;;
21492;SDS011;10908;50.690;4.400;2023-02-15T11:38:14;37.55;;;19.05;;
21492;SDS011;10908;50.690;4.400;2023-02-15T11:43:21;39.15;;;20.58;;
21492;SDS011;10908;50.690;4.400;2023-02-15T11:46:01;37.40;;;19.65;;
21492;SDS011;10908;50.690;4.400;2023-02-15T11:48:27;39.60;;;20.38;;
21492;SDS011;10908;50.690;4.400;2023-02-15T11:50:56;39.83;;;19.92;;
21492;SDS011;10908;50.690;4.400;2023-02-15T11:53:22;42.00;;;19.95;;
21492;SDS011;10908;50.690;4.400;2023-02-15T11:55:51;42.13;;;20.42;;
21492;SDS011;10908;50.690;4.400;2023-02-15T12:03:58;41.00;;;21.27;;
21492;SDS011;10908;50.690;4.400;2023-02-15T12:06:30;40.50;;;20.38;;
21492;SDS011;10908;50.690;4.400;2023-02-15T12:09:20;43.10;;;20.23;;
21492;SDS011;10908;50.690;4.400;2023-02-15T12:11:53;39.28;;;20.45;;
21492;SDS011;10908;50.690;4.400;2023-02-15T12:14:19;44.65;;;20.70;;
21492;SDS011;10908;50.690;4.400;2023-02-15T12:16:48;40.55;;;20.58;;
21492;SDS011;10908;50.690;4.400;2023-02-15T12:22:23;37.75;;;20.95;;
21492;SDS011;10908;50.690;4.400;2023-02-15T12:24:52;45.17;;;20.95;;
21492;SDS011;10908;50.690;4.400;2023-02-15T12:27:24;42.55;;;22.15;;
21492;SDS011;10908;50.690;4.400;2023-02-15T12:32:36;46.05;;;21.77;;
21492;SDS011;10908;50.690;4.400;2023-02-15T12:37:56;41.17;;;21.70;;
21492;SDS011;10908;50.690;4.400;2023-02-15T12:40:30;48.35;;;22.33;;
21492;SDS011;10908;50.690;4.400;2023-02-15T12:42:58;40.80;;;22.88;;
21492;SDS011;10908;50.690;4.400;2023-02-15T12:45:31;40.55;;;21.90;;
21492;SDS011;10908;50.690;4.400;2023-02-15T12:50:48;45.25;;;23.40;;
21492;SDS011;10908;50.690;4.400;2023-02-15T12:55:51;45.72;;;24.02;;
21492;SDS011;10908;50.690;4.400;2023-02-15T12:58:18;49.00;;;23.92;;
21492;SDS011;10908;50.690;4.400;2023-02-15T13:00:46;42.03;;;23.98;;
21492;SDS011;10908;50.690;4.400;2023-02-15T13:03:20;44.22;;;23.35;;
21492;SDS011;10908;50.690;4.400;2023-02-15T13:05:52;44.88;;;22.98;;
21492;SDS011;10908;50.690;4.400;2023-02-15T13:08:20;45.45;;;24.35;;
21492;SDS011;10908;50.690;4.400;2023-02-15T13:10:59;51.45;;;24.50;;
21492;SDS011;10908;50.690;4.400;2023-02-15T13:13:32;47.55;;;24.42;;
21492;SDS011;10908;50.690;4.400;2023-02-15T13:18:29;44.92;;;24.33;;
21492;SDS011;10908;50.690;4.400;2023-02-15T13:21:12;41.35;;;23.77;;
21492;SDS011;10908;50.690;4.400;2023-02-15T13:23:51;48.75;;;24.48;;
21492;SDS011;10908;50.690;4.400;2023-02-15T13:26:22;48.13;;;24.70;;
21492;SDS011;10908;50.690;4.400;2023-02-15T13:28:55;44.17;;;25.00;;
21492;SDS011;10908;50.690;4.400;2023-02-15T13:31:25;46.72;;;24.80;;
21492;SDS011;10908;50.690;4.400;2023-02-15T13:33:57;46.90;;;24.20;;
21492;SDS011;10908;50.690;4.400;2023-02-15T13:53:24;44.13;;;23.60;;
21492;SDS011;10908;50.690;4.400;2023-02-15T13:55:57;44.35;;;23.83;;
21492;SDS011;10908;50.690;4.400;2023-02-15T14:01:26;43.50;;;23.45;;
21492;SDS011;10908;50.690;4.400;2023-02-15T14:06:38;46.30;;;23.15;;
21492;SDS011;10908;50.690;4.400;2023-02-15T14:12:11;45.25;;;24.10;;
21492;SDS011;10908;50.690;4.400;2023-02-15T14:26:09;44.30;;;23.58;;
21492;SDS011;10908;50.690;4.400;2023-02-15T14:28:50;43.50;;;23.58;;
21492;SDS011;10908;50.690;4.400;2023-02-15T14:31:25;42.97;;;23.83;;
21492;SDS011;10908;50.690;4.400;2023-02-15T14:33:58;48.67;;;24.48;;
21492;SDS011;10908;50.690;4.400;2023-02-15T14:36:24;48.25;;;25.15;;
21492;SDS011;10908;50.690;4.400;2023-02-15T14:42:27;44.45;;;24.10;;
21492;SDS011;10908;50.690;4.400;2023-02-15T14:45:19;45.42;;;24.08;;
21492;SDS011;10908;50.690;4.400;2023-02-15T14:47:52;44.95;;;24.40;;
21492;SDS011;10908;50.690;4.400;2023-02-15T14:58:38;42.85;;;23.08;;
21492;SDS011;10908;50.690;4.400;2023-02-15T15:01:30;42.10;;;23.35;;
21492;SDS011;10908;50.690;4.400;2023-02-15T15:03:59;39.40;;;22.70;;
21492;SDS011;10908;50.690;4.400;2023-02-15T15:06:55;41.40;;;22.63;;
21492;SDS011;10908;50.690;4.400;2023-02-15T15:09:29;41.78;;;22.85;;
21492;SDS011;10908;50.690;4.400;2023-02-15T15:12:36;44.50;;;23.92;;
21492;SDS011;10908;50.690;4.400;2023-02-15T15:14:47;44.40;;;23.52;;
21492;SDS011;10908;50.690;4.400;2023-02-15T15:20:01;48.03;;;25.58;;
21492;SDS011;10908;50.690;4.400;2023-02-15T15:22:28;45.22;;;25.25;;
21492;SDS011;10908;50.690;4.400;2023-02-15T15:50:53;47.50;;;26.30;;
21492;SDS011;10908;50.690;4.400;2023-02-15T15:53:24;50.70;;;26.55;;
21492;SDS011;10908;50.690;4.400;2023-02-15T15:55:55;49.88;;;27.30;;
21492;SDS011;10908;50.690;4.400;2023-02-15T15:58:28;53.15;;;26.92;;
21492;SDS011;10908;50.690;4.400;2023-02-15T16:01:09;49.28;;;27.00;;
21492;SDS011;10908;50.690;4.400;2023-02-15T16:03:38;52.15;;;26.75;;
21492;SDS011;10908;50.690;4.400;2023-02-15T16:06:13;50.22;;;27.50;;
21492;SDS011;10908;50.690;4.400;2023-02-15T16:08:39;47.83;;;26.80;;
21492;SDS011;10908;50.690;4.400;2023-02-15T16:11:19;47.58;;;26.77;;
21492;SDS011;10908;50.690;4.400;2023-02-15T16:13:47;61.10;;;28.67;;
21492;SDS011;10908;50.690;4.400;2023-02-15T16:16:13;54.05;;;29.25;;
21492;SDS011;10908;50.690;4.400;2023-02-15T16:18:46;52.53;;;27.95;;
21492;SDS011;10908;50.690;4.400;2023-02-15T16:21:31;52.13;;;29.05;;
21492;SDS011;10908;50.690;4.400;2023-02-15T16:29:26;57.47;;;29.98;;
21492;SDS011;10908;50.690;4.400;2023-02-15T16:34:31;57.90;;;31.60;;
21492;SDS011;10908;50.690;4.400;2023-02-15T16:37:15;61.85;;;31.42;;
21492;SDS011;10908;50.690;4.400;2023-02-15T16:39:42;56.88;;;31.20;;
21492;SDS011;10908;50.690;4.400;2023-02-15T16:42:10;58.65;;;31.50;;
21492;SDS011;10908;50.690;4.400;2023-02-15T16:44:37;62.03;;;32.25;;
21492;SDS011;10908;50.690;4.400;2023-02-15T16:47:03;61.15;;;32.97;;
21492;SDS011;10908;50.690;4.400;2023-02-15T16:49:29;57.08;;;30.58;;
21492;SDS011;10908;50.690;4.400;2023-02-15T16:51:59;62.92;;;32.35;;
21492;SDS011;10908;50.690;4.400;2023-02-15T16:54:27;58.13;;;30.13;;
21492;SDS011;10908;50.690;4.400;2023-02-15T16:56:56;58.42;;;29.95;;
21492;SDS011;10908;50.690;4.400;2023-02-15T16:59:45;59.38;;;31.50;;
21492;SDS011;10908;50.690;4.400;2023-02-15T17:02:16;53.20;;;29.67;;
21492;SDS011;10908;50.690;4.400;2023-02-15T17:07:41;57.35;;;31.17;;
21492;SDS011;10908;50.690;4.400;2023-02-15T17:11:03;63.22;;;32.75;;
21492;SDS011;10908;50.690;4.400;2023-02-15T17:15:37;64.13;;;32.28;;
21492;SDS011;10908;50.690;4.400;2023-02-15T17:20:46;59.63;;;31.98;;
21492;SDS011;10908;50.690;4.400;2023-02-15T17:23:47;62.85;;;31.30;;
21492;SDS011;10908;50.690;4.400;2023-02-15T17:26:11;58.50;;;30.92;;
21492;SDS011;10908;50.690;4.400;2023-02-15T17:28:48;54.25;;;30.15;;
21492;SDS011;10908;50.690;4.400;2023-02-15T17:31:17;62.28;;;29.80;;
21492;SDS011;10908;50.690;4.400;2023-02-15T17:33:44;56.35;;;29.45;;
21492;SDS011;10908;50.690;4.400;2023-02-15T17:36:20;56.10;;;29.58;;
21492;SDS011;10908;50.690;4.400;2023-02-15T17:41:29;51.42;;;28.77;;
21492;SDS011;10908;50.690;4.400;2023-02-15T17:43:59;54.92;;;29.05;;
21492;SDS011;10908;50.690;4.400;2023-02-15T17:46:25;54.03;;;28.40;;
21492;SDS011;10908;50.690;4.400;2023-02-15T17:48:59;51.83;;;29.38;;
21492;SDS011;10908;50.690;4.400;2023-02-15T17:51:25;51.47;;;27.90;;
21492;SDS011;10908;50.690;4.400;2023-02-15T17:53:51;53.75;;;28.13;;
21492;SDS011;10908;50.690;4.400;2023-02-15T17:56:37;52.85;;;28.35;;
21492;SDS011;10908;50.690;4.400;2023-02-15T17:59:04;54.22;;;30.08;;
21492;SDS011;10908;50.690;4.400;2023-02-15T18:01:31;59.08;;;29.02;;
21492;SDS011;10908;50.690;4.400;2023-02-15T18:04:19;56.90;;;31.15;;
21492;SDS011;10908;50.690;4.400;2023-02-15T18:07:04;57.92;;;31.55;;
21492;SDS011;10908;50.690;4.400;2023-02-15T18:09:48;59.05;;;30.58;;
21492;SDS011;10908;50.690;4.400;2023-02-15T18:12:33;58.50;;;31.35;;
21492;SDS011;10908;50.690;4.400;2023-02-15T18:15:03;60.47;;;31.10;;
21492;SDS011;10908;50.690;4.400;2023-02-15T18:17:35;60.58;;;31.58;;